Time;durP1;ratioP1;P1;durP2;ratioP2;P2;SDS_P1;SDS_P2;PMS_P1;PMS_P2;Temp;Humidity;BMP_temperature;BMP_pressure;BME280_temperature;BME280_humidity;BME280_pressure;Samples;Min_cycle;Max_cycle;Signal;HPM_P1;HPM_P2
2022/10/09 00:02:30;;;;;;;6.43;5.30;;;;;;;4.52;100.00;97501.34;10408384;28;20200;-77
2022/10/09 00:07:30;;;;;;;15.37;6.50;;;;;;;4.41;100.00;97516.75;10413886;28;20224;-77
2022/10/09 00:12:31;;;;;;;16.27;5.87;;;;;;;4.30;100.00;97512.25;10415433;28;20188;-77
2022/10/09 00:17:31;;;;;;;14.83;6.53;;;;;;;4.29;100.00;97524.41;10415938;28;20188;-77
2022/10/09 00:22:32;;;;;;;10.37;5.17;;;;;;;4.34;100.00;97528.47;10415500;28;20330;-77
2022/10/09 00:27:32;;;;;;;8.90;4.90;;;;;;;4.26;100.00;97519.41;10415148;28;20775;-77
2022/10/09 00:32:32;;;;;;;10.57;4.67;;;;;;;4.23;100.00;97518.78;10381216;28;20660;-76
2022/10/09 00:37:33;;;;;;;11.50;5.83;;;;;;;4.14;100.00;97527.16;10414975;28;20313;-77
2022/10/09 00:42:33;;;;;;;11.03;5.17;;;;;;;4.18;100.00;97526.84;10415079;28;20279;-77
2022/10/09 00:47:45;;;;;;;17.37;5.13;;;;;;;4.20;100.00;97529.34;10414813;28;20213;-77
2022/10/09 00:52:48;;;;;;;10.27;5.33;;;;;;;4.08;100.00;97525.75;10412911;28;20203;-77
2022/10/09 00:57:50;;;;;;;6.73;4.17;;;;;;;4.04;100.00;97526.88;10413831;28;20184;-78
2022/10/09 01:02:50;;;;;;;8.77;4.70;;;;;;;3.99;100.00;97523.75;10412257;28;20197;-77
2022/10/09 01:07:55;;;;;;;12.27;6.13;;;;;;;3.93;100.00;97528.34;10413428;28;20209;-77
2022/10/09 01:13:06;;;;;;;14.10;4.57;;;;;;;3.95;100.00;97530.03;10412707;28;20708;-77
2022/10/09 01:18:10;;;;;;;9.07;5.47;;;;;;;3.90;100.00;97532.91;10395819;28;20184;-77
2022/10/09 01:23:46;;;;;;;8.13;4.97;;;;;;;3.99;100.00;97537.53;10412597;28;20189;-77
2022/10/09 01:28:50;;;;;;;6.70;4.13;;;;;;;4.00;100.00;97533.19;10394827;28;20228;-77
2022/10/09 01:33:50;;;;;;;9.20;3.77;;;;;;;3.97;100.00;97526.44;10394679;28;20189;-77
2022/10/09 01:38:51;;;;;;;7.27;3.87;;;;;;;3.95;100.00;97536.06;10394761;28;20216;-77
2022/10/09 01:43:52;;;;;;;9.07;3.97;;;;;;;3.95;100.00;97538.66;10394208;28;20283;-77
2022/10/09 01:49:14;;;;;;;7.40;4.13;;;;;;;3.91;100.00;97540.59;10411742;28;20691;-77
2022/10/09 01:54:32;;;;;;;11.00;4.07;;;;;;;3.90;100.00;97541.50;10394313;28;20916;-77
2022/10/09 01:59:36;;;;;;;4.73;3.50;;;;;;;3.84;100.00;97546.25;10393256;28;20254;-77
2022/10/09 02:04:38;;;;;;;7.90;4.63;;;;;;;3.80;100.00;97543.03;10393549;28;20675;-77
2022/10/09 02:09:38;;;;;;;9.60;4.00;;;;;;;3.84;100.00;97541.88;10393194;28;20197;-77
2022/10/09 02:14:39;;;;;;;15.30;4.20;;;;;;;3.86;100.00;97534.88;10410460;28;20188;-77
2022/10/09 02:20:08;;;;;;;9.57;4.20;;;;;;;3.80;100.00;97542.16;10393085;28;20192;-77
2022/10/09 02:25:08;;;;;;;8.87;3.33;;;;;;;3.83;100.00;97539.38;10374917;28;20220;-77
2022/10/09 02:30:09;;;;;;;6.23;3.30;;;;;;;3.73;100.00;97536.53;10392032;28;20279;-77
2022/10/09 02:35:10;;;;;;;9.97;3.63;;;;;;;3.75;100.00;97550.22;10376315;28;20220;-77
2022/10/09 02:40:10;;;;;;;11.33;3.43;;;;;;;3.72;100.00;97553.00;10392321;28;20603;-77
2022/10/09 02:45:10;;;;;;;6.43;3.50;;;;;;;3.66;100.00;97555.97;10410253;28;20293;-77
2022/10/09 02:50:11;;;;;;;11.83;3.67;;;;;;;3.56;100.00;97556.50;10409660;28;20192;-77
2022/10/09 02:55:11;;;;;;;9.87;3.20;;;;;;;3.53;100.00;97558.47;10392156;28;20189;-77
2022/10/09 03:00:12;;;;;;;8.00;2.97;;;;;;;3.51;100.00;97560.31;10409358;28;20192;-77
2022/10/09 03:05:12;;;;;;;6.80;2.70;;;;;;;3.56;100.00;97558.28;10407664;28;20220;-76
2022/10/09 03:10:13;;;;;;;8.00;3.03;;;;;;;3.47;100.00;97557.06;10405698;28;20196;-77
2022/10/09 03:15:14;;;;;;;7.00;3.47;;;;;;;3.42;100.00;97566.06;10405455;28;20185;-77
2022/10/09 03:20:15;;;;;;;6.83;3.10;;;;;;;3.38;100.00;97570.56;10405928;28;20327;-75
2022/10/09 03:25:15;;;;;;;7.17;3.10;;;;;;;3.34;100.00;97574.28;10405528;28;20322;-75
2022/10/09 03:30:16;;;;;;;7.90;3.10;;;;;;;3.29;100.00;97573.69;10404898;28;20307;-75
2022/10/09 03:35:16;;;;;;;10.37;3.40;;;;;;;3.29;100.00;97581.47;10386845;28;20205;-75
2022/10/09 03:40:17;;;;;;;7.60;3.30;;;;;;;3.16;100.00;97584.75;10388648;28;20188;-74
2022/10/09 03:45:18;;;;;;;12.93;4.27;;;;;;;3.03;100.00;97592.41;10394939;28;20668;-76
2022/10/09 03:50:18;;;;;;;4.37;3.23;;;;;;;2.98;100.00;97602.19;10412227;28;20185;-75
2022/10/09 03:55:19;;;;;;;7.67;3.53;;;;;;;2.91;100.00;97598.28;10412990;28;20181;-75
2022/10/09 04:00:19;;;;;;;9.00;3.53;;;;;;;2.88;100.00;97603.63;10393868;28;20192;-75
2022/10/09 04:05:19;;;;;;;7.73;3.97;;;;;;;2.86;100.00;97602.88;10398499;28;20209;-76
2022/10/09 04:10:20;;;;;;;14.73;3.50;;;;;;;2.79;100.00;97597.22;10397571;28;20192;-76
2022/10/09 04:15:20;;;;;;;7.07;3.53;;;;;;;2.81;100.00;97610.06;10397598;28;20527;-76
2022/10/09 04:20:21;;;;;;;7.17;3.27;;;;;;;2.78;100.00;97610.25;10415933;28;20216;-75
2022/10/09 04:25:21;;;;;;;6.23;3.50;;;;;;;2.79;100.00;97612.75;10415007;28;20415;-76
2022/10/09 04:30:22;;;;;;;4.00;3.17;;;;;;;2.83;100.00;97622.00;10414797;28;20260;-76
2022/10/09 04:35:22;;;;;;;5.20;2.93;;;;;;;2.75;100.00;97611.25;10414927;28;20212;-75
2022/10/09 04:40:22;;;;;;;9.47;3.80;;;;;;;2.63;100.00;97607.59;10414599;28;20188;-76
2022/10/09 04:45:24;;;;;;;5.83;3.10;;;;;;;2.66;100.00;97604.00;10414289;28;20724;-75
2022/10/09 04:50:24;;;;;;;9.97;3.10;;;;;;;2.60;100.00;97604.31;10414301;28;20207;-76
2022/10/09 04:55:30;;;;;;;7.33;2.90;;;;;;;2.48;100.00;97598.94;10413886;28;20277;-76
2022/10/09 05:00:31;;;;;;;7.70;3.53;;;;;;;2.41;100.00;97607.91;10413909;28;20193;-76
2022/10/09 05:05:32;;;;;;;5.83;2.90;;;;;;;2.37;100.00;97601.25;10395944;28;20227;-75
2022/10/09 05:10:32;;;;;;;8.00;2.57;;;;;;;2.34;100.00;97598.81;10413445;28;20738;-76
2022/10/09 05:15:35;;;;;;;4.93;2.40;;;;;;;2.31;100.00;97610.19;10395801;28;20185;-76
2022/10/09 05:20:40;;;;;;;3.67;3.00;;;;;;;2.32;100.00;97611.00;10412992;28;20584;-76
2022/10/09 05:25:40;;;;;;;4.63;2.40;;;;;;;2.34;100.00;97623.84;10412005;28;20219;-76
2022/10/09 05:30:40;;;;;;;14.47;2.70;;;;;;;2.30;100.00;97634.38;10412502;28;20327;-76
2022/10/09 05:35:52;;;;;;;6.63;2.70;;;;;;;2.39;100.00;97633.03;10412275;28;20213;-76
2022/10/09 05:40:53;;;;;;;12.97;4.37;;;;;;;2.37;100.00;97642.63;10412025;28;20189;-76
2022/10/09 05:45:54;;;;;;;12.17;3.77;;;;;;;2.43;100.00;97638.88;10412475;28;20185;-76
2022/10/09 05:51:14;;;;;;;8.77;3.50;;;;;;;2.48;100.00;97639.44;10394240;28;20188;-77
2022/10/09 05:56:20;;;;;;;12.20;3.87;;;;;;;2.43;100.00;97637.13;10412031;28;20226;-76
2022/10/09 06:01:22;;;;;;;7.63;4.13;;;;;;;2.42;100.00;97640.63;10411252;28;20185;-76
2022/10/09 06:06:25;;;;;;;9.47;3.60;;;;;;;2.49;100.00;97649.72;10410693;28;20185;-76
2022/10/09 06:11:30;;;;;;;9.10;3.03;;;;;;;2.46;100.00;97639.53;10411496;28;20196;-76
2022/10/09 06:16:33;;;;;;;4.23;2.77;;;;;;;2.58;100.00;97645.78;10393520;28;20253;-76
2022/10/09 06:21:33;;;;;;;11.40;5.30;;;;;;;2.76;100.00;97649.13;10393232;28;20201;-76
2022/10/09 06:26:34;;;;;;;6.23;3.20;;;;;;;3.08;100.00;97653.44;10392891;28;20192;-76
2022/10/09 06:31:34;;;;;;;10.27;4.13;;;;;;;3.55;100.00;97655.06;10392706;28;20306;-77
2022/10/09 06:36:34;;;;;;;9.53;3.57;;;;;;;4.02;100.00;97656.59;10410219;28;20298;-76
2022/10/09 06:41:35;;;;;;;8.67;7.33;;;;;;;4.15;100.00;97643.75;10409819;28;20267;-76
2022/10/09 06:46:48;;;;;;;10.23;4.90;;;;;;;4.35;100.00;97637.31;10377310;28;20183;-76
2022/10/09 06:51:48;;;;;;;4.40;2.90;;;;;;;4.75;100.00;97644.38;10414960;28;20189;-75
2022/10/09 06:56:48;;;;;;;3.67;2.67;;;;;;;5.21;100.00;97630.19;10412044;28;20224;-75
2022/10/09 07:01:49;;;;;;;4.17;2.70;;;;;;;5.53;100.00;97636.72;10404679;28;20204;-76
2022/10/09 07:06:49;;;;;;;2.50;1.90;;;;;;;5.86;100.00;97634.53;10405832;28;20192;-76
2022/10/09 07:11:50;;;;;;;7.20;2.30;;;;;;;6.24;100.00;97621.53;10406431;28;20194;-76
2022/10/09 07:16:50;;;;;;;8.07;2.90;;;;;;;6.24;100.00;97611.13;10417344;28;20207;-74
2022/10/09 07:21:51;;;;;;;3.83;2.33;;;;;;;6.56;100.00;97622.81;10438183;28;20183;-74
2022/10/09 07:26:55;;;;;;;9.13;2.20;;;;;;;7.27;100.00;97609.88;10435687;28;20565;-74
2022/10/09 07:31:56;;;;;;;4.47;1.97;;;;;;;7.76;100.00;97621.84;10432305;28;20603;-75
2022/10/09 07:36:56;;;;;;;4.27;1.77;;;;;;;8.00;100.00;97631.38;10436210;28;20230;-76
2022/10/09 07:41:58;;;;;;;5.23;2.47;;;;;;;8.98;100.00;97625.47;10432283;28;20258;-76
2022/10/09 07:46:58;;;;;;;4.77;2.20;;;;;;;9.53;100.00;97620.13;10439905;28;20253;-76
2022/10/09 07:51:59;;;;;;;6.47;1.80;;;;;;;9.44;100.00;97619.09;10436401;28;20269;-76
2022/10/09 07:56:59;;;;;;;3.57;1.67;;;;;;;10.06;100.00;97610.50;10454293;28;20215;-76
2022/10/09 08:01:59;;;;;;;5.13;2.07;;;;;;;11.21;100.00;97586.50;10455488;28;20242;-76
2022/10/09 08:07:00;;;;;;;8.38;1.75;;;;;;;11.60;100.00;97589.91;10456489;28;20222;-76
2022/10/09 08:12:00;;;;;;;9.32;1.98;;;;;;;13.18;93.23;97536.41;10454185;28;20247;-76
2022/10/09 08:17:00;;;;;;;5.97;1.38;;;;;;;14.39;88.12;97524.22;10452851;28;20220;-76
2022/10/09 08:22:01;;;;;;;7.78;1.80;;;;;;;14.09;82.51;97502.72;10438202;28;20188;-77
2022/10/09 08:27:01;;;;;;;7.25;1.75;;;;;;;15.10;77.32;97488.56;10456091;28;20274;-77
2022/10/09 08:32:02;;;;;;;5.05;1.27;;;;;;;17.03;76.55;97512.09;10452604;28;20710;-76
2022/10/09 08:37:02;;;;;;;3.85;1.63;;;;;;;15.17;76.94;97520.38;10429980;28;20226;-77
2022/10/09 08:42:03;;;;;;;8.40;2.22;;;;;;;16.60;73.86;97493.19;10446006;28;20207;-77
2022/10/09 08:47:12;;;;;;;6.05;2.03;;;;;;;17.40;69.09;97454.81;10456102;28;20190;-77
2022/10/09 08:52:40;;;;;;;5.18;1.60;;;;;;;18.51;62.96;97409.69;10456002;28;20204;-77
2022/10/09 08:57:41;;;;;;;7.25;1.42;;;;;;;18.50;62.81;97417.84;10417832;28;20731;-78
2022/10/09 09:03:01;;;;;;;5.40;1.40;;;;;;;17.74;60.90;97373.94;10413030;28;20193;-78
2022/10/09 09:08:26;;;;;;;9.32;1.80;;;;;;;16.74;64.22;97426.28;10414577;28;20309;-77
2022/10/09 09:14:16;;;;;;;7.90;1.40;;;;;;;17.93;61.72;97407.03;10413868;28;20185;-78
2022/10/09 09:19:50;;;;;;;4.90;1.23;;;;;;;18.24;57.40;97341.44;10404485;28;20571;-78
2022/10/09 09:31:20;;;;;;;2.88;1.08;;;;;;;19.15;54.80;97327.47;10450458;28;20215;-78
2022/10/09 09:36:30;;;;;;;9.50;2.25;;;;;;;18.23;57.51;97366.34;10436144;28;20235;-78
2022/10/09 09:41:31;;;;;;;7.03;1.90;;;;;;;17.26;59.65;97382.31;10436083;28;20207;-78
2022/10/09 09:46:31;;;;;;;8.07;1.40;;;;;;;17.31;60.84;97400.28;10419964;28;20238;-77
2022/10/09 09:51:32;;;;;;;8.40;1.73;;;;;;;17.59;61.23;97405.75;10454054;28;20199;-78
2022/10/09 09:56:40;;;;;;;9.43;2.58;;;;;;;16.02;65.70;97447.75;10436444;28;20194;-78
2022/10/09 10:01:41;;;;;;;7.32;1.52;;;;;;;17.11;65.28;97459.06;10435865;28;20204;-78
2022/10/09 10:06:42;;;;;;;10.75;2.40;;;;;;;18.83;58.16;97366.88;10435071;28;20216;-78
2022/10/09 10:11:51;;;;;;;19.70;9.73;;;;;;;18.33;58.59;97364.19;10453447;28;20191;-78
2022/10/09 10:16:53;;;;;;;6.88;3.17;;;;;;;17.97;60.05;97389.72;10453299;28;20192;-78
2022/10/09 10:21:57;;;;;;;10.48;1.45;;;;;;;17.40;60.73;97371.91;10435063;28;20645;-78
2022/10/09 10:27:13;;;;;;;5.00;1.70;;;;;;;17.77;60.12;97372.75;10435526;28;20314;-78
2022/10/09 10:32:27;;;;;;;5.60;1.15;;;;;;;19.92;55.62;97344.19;10418458;28;20204;-78
2022/10/09 10:37:45;;;;;;;4.88;1.33;;;;;;;20.16;53.17;97294.13;10452613;28;20633;-78
2022/10/09 10:42:52;;;;;;;3.80;1.00;;;;;;;21.70;49.49;97263.47;10434893;28;20184;-79
2022/10/09 10:47:54;;;;;;;5.35;1.40;;;;;;;20.42;51.40;97264.84;10452401;28;20216;-78
2022/10/09 10:53:44;;;;;;;7.00;1.67;;;;;;;19.30;55.29;97316.75;10434099;28;20200;-78
2022/10/09 10:59:20;;;;;;;9.30;3.22;;;;;;;18.66;57.82;97350.41;10421760;28;20209;-78
2022/10/09 11:04:43;;;;;;;7.20;1.25;;;;;;;20.10;53.36;97293.06;10431859;28;20227;-78
2022/10/09 11:10:05;;;;;;;7.90;2.05;;;;;;;20.59;52.38;97281.19;10407084;28;20203;-78
2022/10/09 11:15:29;;;;;;;6.28;1.45;;;;;;;22.02;49.31;97246.66;10486130;28;20219;-76
2022/10/09 11:21:09;;;;;;;7.03;1.58;;;;;;;21.76;48.53;97212.97;10466185;28;20204;-77
2022/10/09 11:26:15;;;;;;;5.93;1.42;;;;;;;21.05;50.73;97238.75;10453957;28;20227;-76
2022/10/09 11:31:19;;;;;;;6.80;1.20;;;;;;;21.65;47.33;97177.97;10451686;28;20243;-77
2022/10/09 11:36:33;;;;;;;4.32;1.40;;;;;;;21.61;52.23;97275.44;10451743;28;20203;-77
2022/10/09 11:41:34;;;;;;;5.55;1.40;;;;;;;21.08;51.90;97243.66;10432799;28;20192;-77
2022/10/09 11:46:43;;;;;;;4.15;1.45;;;;;;;22.19;49.55;97210.41;10433774;28;20226;-77
2022/10/09 11:52:12;;;;;;;5.03;1.40;;;;;;;21.47;48.52;97170.69;10433275;28;20556;-77
2022/10/09 11:57:13;;;;;;;4.55;1.50;;;;;;;19.46;46.18;97026.75;10450638;28;20278;-76
2022/10/09 12:02:19;;;;;;;7.22;1.27;;;;;;;20.57;48.84;97150.16;10452777;28;20627;-77
2022/10/09 12:07:37;;;;;;;4.03;1.13;;;;;;;22.64;44.65;97107.09;10457706;28;20220;-77
2022/10/09 12:12:38;;;;;;;4.25;1.63;;;;;;;22.29;44.94;97089.78;10439900;28;20206;-77
2022/10/09 12:17:47;;;;;;;6.15;1.15;;;;;;;20.56;43.38;97002.13;10439946;28;20195;-77
2022/10/09 12:22:56;;;;;;;2.97;1.10;;;;;;;19.92;42.84;96967.41;10457061;28;20192;-77
2022/10/09 12:27:59;;;;;;;2.60;1.10;;;;;;;19.94;46.34;97047.78;10439333;28;20239;-77
2022/10/09 12:33:06;;;;;;;2.35;1.10;;;;;;;20.67;43.13;97016.63;10438967;28;20188;-77
2022/10/09 12:38:19;;;;;;;3.58;0.98;;;;;;;20.58;40.32;96930.88;10438990;28;20208;-77
2022/10/09 12:43:22;;;;;;;2.40;0.80;;;;;;;18.38;43.33;96920.63;10438806;28;20227;-77
2022/10/09 12:48:24;;;;;;;4.80;1.05;;;;;;;18.64;43.15;96930.50;10438407;28;20220;-77
2022/10/09 12:53:26;;;;;;;2.60;1.08;;;;;;;20.34;42.43;96969.69;10437793;28;20211;-77
2022/10/09 12:58:31;;;;;;;3.10;0.80;;;;;;;21.49;41.08;96975.88;10456112;28;20192;-77
2022/10/09 13:03:40;;;;;;;4.00;1.20;;;;;;;21.61;40.37;96963.47;10438017;28;20214;-77
2022/10/09 13:08:41;;;;;;;2.78;1.02;;;;;;;21.80;39.95;96947.50;10455263;28;20229;-77
2022/10/09 13:13:41;;;;;;;3.25;1.15;;;;;;;18.72;42.75;96912.53;10440840;28;20185;-77
2022/10/09 13:38:03;;;;;;;20.67;11.00;;;;;;;18.30;42.55;96876.53;10403595;28;20236;-76
2022/10/09 13:43:04;;;;;;;2.22;0.95;;;;;;;18.61;43.97;96942.31;10412102;28;20188;-76
2022/10/09 13:48:05;;;;;;;2.00;0.80;;;;;;;17.62;43.67;96885.28;10412263;28;20217;-76
2022/10/09 13:53:05;;;;;;;4.63;1.17;;;;;;;17.29;47.05;96979.41;10393990;28;20652;-77
2022/10/09 13:58:05;;;;;;;2.35;1.17;;;;;;;18.58;44.42;96950.69;10412254;28;20614;-77
2022/10/09 14:03:06;;;;;;;3.92;1.20;;;;;;;17.73;45.72;96943.00;10411794;28;20221;-76
2022/10/09 14:08:06;;;;;;;2.70;1.30;;;;;;;18.61;46.48;96986.63;10411910;28;20212;-76
2022/10/09 14:13:08;;;;;;;2.78;1.15;;;;;;;17.80;42.50;96856.41;10411281;28;20648;-76
2022/10/09 14:18:08;;;;;;;4.47;1.40;;;;;;;16.00;45.25;96858.59;10411364;28;20317;-76
2022/10/09 14:23:08;;;;;;;3.65;1.20;;;;;;;16.71;45.75;96897.50;10416454;28;20184;-77
2022/10/09 14:28:09;;;;;;;5.85;1.50;;;;;;;15.62;47.60;96901.00;10435133;28;20228;-76
2022/10/09 14:33:09;;;;;;;2.67;1.20;;;;;;;16.26;46.98;96907.44;10452277;28;20191;-76
2022/10/09 14:38:09;;;;;;;2.28;1.00;;;;;;;18.38;46.47;96971.03;10434431;28;20258;-77
2022/10/09 14:43:10;;;;;;;5.97;1.33;;;;;;;19.52;43.52;96932.09;10451365;28;20234;-77
2022/10/09 14:48:11;;;;;;;9.10;1.40;;;;;;;21.19;41.44;96920.59;10434955;28;20304;-77
2022/10/09 14:53:11;;;;;;;3.50;1.15;;;;;;;17.78;43.38;96844.41;10392250;28;20342;-77
2022/10/09 14:58:12;;;;;;;2.97;1.35;;;;;;;18.20;43.69;96881.44;10411342;28;20751;-77
2022/10/09 15:03:12;;;;;;;4.25;1.50;;;;;;;19.59;40.83;96859.31;10410630;28;20641;-77
2022/10/09 15:08:12;;;;;;;7.10;1.15;;;;;;;18.14;41.65;96814.91;10410392;28;20582;-77
2022/10/09 15:13:13;;;;;;;2.25;1.10;;;;;;;17.70;43.00;96832.09;10417694;28;20183;-76
2022/10/09 15:18:13;;;;;;;1.98;1.13;;;;;;;16.92;45.97;96882.63;10459755;28;20215;-77
2022/10/09 15:23:14;;;;;;;4.65;1.17;;;;;;;15.24;49.54;96919.56;10503934;28;20175;-78
2022/10/09 15:28:15;;;;;;;2.65;1.20;;;;;;;13.68;54.53;96989.91;10456324;28;20222;-78
2022/10/09 15:33:16;;;;;;;3.65;1.30;;;;;;;12.88;58.59;97056.41;10434446;28;20606;-78
2022/10/09 15:38:19;;;;;;;6.80;2.95;;;;;;;12.25;61.71;97099.72;10458196;28;20335;-78
2022/10/09 15:43:22;;;;;;;6.82;2.33;;;;;;;12.34;62.53;97126.88;10457444;28;20184;-78
2022/10/09 15:48:23;;;;;;;5.95;1.75;;;;;;;12.14;64.66;97153.34;10438578;28;20298;-78
2022/10/09 15:53:24;;;;;;;12.38;6.32;;;;;;;11.95;67.60;97199.03;10400223;28;20191;-78
2022/10/09 15:58:24;;;;;;;24.45;13.13;;;;;;;11.18;69.11;97202.09;10416474;28;20191;-78
2022/10/09 16:03:24;;;;;;;13.85;6.43;;;;;;;10.85;72.18;97246.28;10417701;28;20195;-78
2022/10/09 16:08:25;;;;;;;6.57;3.10;;;;;;;10.42;74.29;97265.22;10416782;28;20311;-77
2022/10/09 16:13:26;;;;;;;5.80;2.70;;;;;;;10.69;76.95;97278.34;10416550;28;20756;-77
2022/10/09 16:18:29;;;;;;;10.77;3.47;;;;;;;10.10;79.36;97277.63;10416815;28;20583;-77
2022/10/09 16:23:30;;;;;;;10.13;2.90;;;;;;;9.35;85.93;97290.38;10397074;28;20227;-76
2022/10/09 16:28:31;;;;;;;22.80;8.30;;;;;;;9.14;89.66;97269.53;10416516;28;20295;-77
2022/10/09 16:33:32;;;;;;;4.90;1.90;;;;;;;8.92;92.11;97260.16;10417077;28;20619;-78
2022/10/09 16:38:32;;;;;;;9.87;4.83;;;;;;;8.31;97.31;97274.00;10373792;28;20237;-78
2022/10/09 16:43:32;;;;;;;11.23;5.93;;;;;;;8.23;99.43;97271.19;10374151;28;20720;-78
2022/10/09 16:48:33;;;;;;;11.37;6.73;;;;;;;7.71;100.00;97289.34;10372844;28;20217;-78
2022/10/09 16:53:33;;;;;;;23.77;18.40;;;;;;;7.45;100.00;97293.09;10375807;28;20284;-78
2022/10/09 16:58:33;;;;;;;16.40;8.73;;;;;;;7.26;100.00;97285.91;10402184;28;20177;-77
2022/10/09 17:03:34;;;;;;;11.10;5.90;;;;;;;7.28;100.00;97291.00;10413554;28;20196;-77
2022/10/09 17:08:35;;;;;;;15.30;7.50;;;;;;;7.01;100.00;97284.41;10398299;28;20281;-78
2022/10/09 17:13:35;;;;;;;8.17;3.30;;;;;;;6.34;100.00;97288.66;10414198;28;20277;-77
2022/10/09 17:18:36;;;;;;;20.77;9.30;;;;;;;6.31;100.00;97288.88;10392603;28;20191;-77
2022/10/09 17:23:37;;;;;;;10.27;6.50;;;;;;;6.13;100.00;97291.09;10404049;28;20197;-78
2022/10/09 17:28:38;;;;;;;9.97;6.87;;;;;;;6.23;100.00;97286.00;10405298;28;20666;-77
2022/10/09 17:33:41;;;;;;;13.17;8.13;;;;;;;6.20;100.00;97286.22;10406828;28;20791;-77
2022/10/09 17:38:42;;;;;;;9.93;4.40;;;;;;;5.94;100.00;97281.19;10433298;28;20232;-77
2022/10/09 17:43:43;;;;;;;8.57;5.00;;;;;;;5.80;100.00;97289.97;10441975;28;20266;-77
2022/10/09 17:48:51;;;;;;;12.60;5.00;;;;;;;5.75;100.00;97283.47;10431745;28;20796;-78
2022/10/09 17:53:52;;;;;;;12.47;4.07;;;;;;;5.82;100.00;97279.47;10435544;28;20195;-78
2022/10/09 17:58:54;;;;;;;11.20;4.40;;;;;;;5.50;100.00;97267.06;10434569;28;20284;-78
2022/10/09 18:03:55;;;;;;;8.53;4.30;;;;;;;5.30;100.00;97263.31;10435116;28;20198;-76
2022/10/09 18:08:56;;;;;;;10.10;4.67;;;;;;;5.07;100.00;97265.78;10435034;28;20263;-77
2022/10/09 18:13:57;;;;;;;12.67;5.50;;;;;;;4.96;100.00;97270.88;10453497;28;20302;-77
2022/10/09 18:19:02;;;;;;;10.70;5.77;;;;;;;4.83;100.00;97263.13;10453334;28;20299;-78
2022/10/09 18:24:02;;;;;;;13.70;6.60;;;;;;;4.62;100.00;97262.84;10452369;28;20203;-77
2022/10/09 18:29:03;;;;;;;11.27;4.80;;;;;;;4.63;100.00;97262.72;10452578;28;20230;-76
2022/10/09 18:34:03;;;;;;;7.03;4.80;;;;;;;4.51;100.00;97253.19;10452237;28;20192;-77
2022/10/09 18:39:09;;;;;;;7.67;3.27;;;;;;;4.33;100.00;97241.50;10452073;28;20595;-77
2022/10/09 18:44:16;;;;;;;7.03;3.03;;;;;;;4.16;100.00;97245.22;10434439;28;20196;-78
2022/10/09 18:49:18;;;;;;;5.60;2.97;;;;;;;3.97;100.00;97228.31;10452096;28;20223;-78
2022/10/09 18:54:21;;;;;;;9.30;3.57;;;;;;;3.77;100.00;97234.81;10433595;28;20675;-77
2022/10/09 18:59:21;;;;;;;5.53;3.50;;;;;;;3.70;100.00;97238.75;10434309;28;20268;-77
2022/10/09 19:04:22;;;;;;;11.77;3.43;;;;;;;3.71;100.00;97240.41;10452468;28;20283;-77
2022/10/09 19:09:22;;;;;;;5.53;3.30;;;;;;;3.65;100.00;97233.03;10453058;28;20208;-78
2022/10/09 19:14:23;;;;;;;5.43;3.27;;;;;;;3.62;100.00;97230.66;10467169;28;20237;-77
2022/10/09 19:19:23;;;;;;;10.30;3.90;;;;;;;3.39;100.00;97223.44;10448201;28;20261;-77
2022/10/09 19:24:23;;;;;;;6.57;3.77;;;;;;;3.27;100.00;97211.28;10465750;28;20246;-77
2022/10/09 19:29:24;;;;;;;13.43;5.47;;;;;;;3.26;100.00;97208.78;10467196;28;20210;-76
2022/10/09 19:34:25;;;;;;;8.03;4.40;;;;;;;3.09;100.00;97205.50;10483664;28;20200;-77
2022/10/09 19:39:26;;;;;;;7.30;3.80;;;;;;;3.24;100.00;97206.28;10518051;28;20227;-77
2022/10/09 19:44:27;;;;;;;9.20;3.43;;;;;;;3.16;100.00;97201.59;10469016;28;20267;-77
2022/10/09 19:49:30;;;;;;;9.00;4.40;;;;;;;2.97;100.00;97199.38;10464140;28;20638;-75
2022/10/09 19:54:31;;;;;;;9.53;4.53;;;;;;;2.80;100.00;97184.91;10464039;28;20219;-76
2022/10/09 19:59:32;;;;;;;6.63;3.90;;;;;;;2.76;100.00;97182.63;10445883;28;20739;-76
2022/10/09 20:04:32;;;;;;;8.00;4.40;;;;;;;2.72;100.00;97176.78;10446402;28;20191;-77
2022/10/09 20:09:33;;;;;;;9.80;4.20;;;;;;;2.75;100.00;97179.19;10463274;28;20211;-76
2022/10/09 20:14:33;;;;;;;9.40;3.83;;;;;;;2.80;100.00;97177.16;10446077;28;20195;-77
2022/10/09 20:19:33;;;;;;;11.17;4.10;;;;;;;2.61;100.00;97172.28;10463982;28;20194;-78
2022/10/09 20:24:34;;;;;;;6.60;3.93;;;;;;;2.62;100.00;97171.38;10448997;28;20204;-77
2022/10/09 20:29:34;;;;;;;10.13;3.97;;;;;;;2.66;100.00;97165.09;10449408;28;20293;-76
2022/10/09 20:34:34;;;;;;;11.90;3.80;;;;;;;2.54;100.00;97159.81;10452441;28;20192;-76
2022/10/09 20:39:35;;;;;;;10.93;3.90;;;;;;;2.46;100.00;97152.53;10446976;28;20239;-77
2022/10/09 20:44:35;;;;;;;6.43;3.80;;;;;;;2.55;100.00;97144.22;10449408;28;20204;-77
2022/10/09 20:49:36;;;;;;;8.97;3.63;;;;;;;2.55;100.00;97148.56;10456854;28;20235;-78
2022/10/09 20:54:36;;;;;;;8.60;3.70;;;;;;;2.42;100.00;97131.22;10455942;28;20195;-77
2022/10/09 20:59:36;;;;;;;8.30;3.50;;;;;;;2.45;100.00;97131.03;10455760;28;20259;-77
2022/10/09 21:04:37;;;;;;;6.77;4.13;;;;;;;2.33;100.00;97124.06;10456074;28;20204;-77
2022/10/09 21:09:37;;;;;;;8.17;3.63;;;;;;;2.30;100.00;97119.06;10455261;28;20692;-77
2022/10/09 21:14:38;;;;;;;7.73;3.70;;;;;;;2.22;100.00;97121.28;10455770;28;20270;-77
2022/10/09 21:19:39;;;;;;;10.07;4.13;;;;;;;2.22;100.00;97116.09;10454868;28;20196;-76
2022/10/09 21:24:40;;;;;;;12.73;4.30;;;;;;;2.27;100.00;97109.75;10455250;28;20184;-77
2022/10/09 21:29:40;;;;;;;8.30;4.23;;;;;;;2.14;100.00;97104.50;10455028;28;20663;-76
2022/10/09 21:34:40;;;;;;;9.70;4.40;;;;;;;2.06;100.00;97095.56;10454274;28;20718;-76
2022/10/09 21:39:41;;;;;;;10.30;4.87;;;;;;;2.12;100.00;97096.00;10454389;28;20236;-75
2022/10/09 21:44:41;;;;;;;8.43;4.60;;;;;;;2.18;100.00;97088.81;10454243;28;20279;-76
2022/10/09 21:49:41;;;;;;;9.73;4.77;;;;;;;2.25;100.00;97092.66;10454204;28;20223;-77
2022/10/09 21:54:42;;;;;;;7.50;5.67;;;;;;;2.21;100.00;97094.59;10453517;28;20180;-77
2022/10/09 21:59:42;;;;;;;5.70;4.47;;;;;;;2.11;100.00;97086.59;10453885;28;20188;-76
2022/10/09 22:04:42;;;;;;;12.40;5.10;;;;;;;2.09;100.00;97082.44;10453780;28;20258;-76
2022/10/09 22:09:43;;;;;;;8.73;5.20;;;;;;;2.21;100.00;97080.88;10453696;28;20212;-76
2022/10/09 22:14:45;;;;;;;7.37;4.73;;;;;;;2.24;100.00;97071.16;10453557;28;20622;-76
2022/10/09 22:19:45;;;;;;;8.57;4.97;;;;;;;2.23;100.00;97072.06;10452971;28;20267;-76
2022/10/09 22:24:46;;;;;;;6.63;4.67;;;;;;;2.45;100.00;97070.72;10452987;28;20646;-77
2022/10/09 22:29:46;;;;;;;7.93;5.37;;;;;;;2.71;100.00;97082.00;10452699;28;20247;-76
2022/10/09 22:34:49;;;;;;;7.80;4.30;;;;;;;3.06;100.00;97065.13;10452614;28;20180;-77
2022/10/09 22:39:49;;;;;;;5.47;4.00;;;;;;;3.15;100.00;97067.91;10452925;28;20196;-76
2022/10/09 22:44:49;;;;;;;11.60;4.07;;;;;;;3.45;100.00;97048.69;10451953;28;20651;-76
2022/10/09 22:49:50;;;;;;;9.77;4.00;;;;;;;3.57;100.00;97044.44;10452482;28;20219;-76
2022/10/09 22:54:51;;;;;;;11.27;4.00;;;;;;;3.71;100.00;97035.72;10452103;28;20215;-75
2022/10/09 22:59:51;;;;;;;5.20;3.63;;;;;;;4.60;100.00;97029.41;10451984;28;20733;-75
2022/10/09 23:04:52;;;;;;;8.27;3.67;;;;;;;5.11;100.00;97004.91;10452018;28;20188;-76
2022/10/09 23:09:52;;;;;;;6.63;3.00;;;;;;;4.78;100.00;97000.47;10452159;28;20215;-76
2022/10/09 23:14:52;;;;;;;4.20;3.43;;;;;;;4.64;100.00;96991.94;10451967;28;20191;-77
2022/10/09 23:19:53;;;;;;;4.43;3.33;;;;;;;4.50;100.00;96981.72;10451606;28;20647;-75
2022/10/09 23:24:53;;;;;;;5.90;3.50;;;;;;;4.28;100.00;96977.28;10451880;28;20291;-76
2022/10/09 23:29:54;;;;;;;9.10;4.13;;;;;;;4.10;100.00;96989.78;10451525;28;20208;-77
2022/10/09 23:34:54;;;;;;;8.03;4.10;;;;;;;3.83;100.00;96993.41;10451854;28;20191;-76
2022/10/09 23:39:54;;;;;;;6.57;4.00;;;;;;;3.84;100.00;96979.50;10451431;28;20187;-77
2022/10/09 23:44:55;;;;;;;10.23;3.57;;;;;;;3.67;100.00;96969.50;10451718;28;20211;-76
2022/10/09 23:49:55;;;;;;;7.70;4.23;;;;;;;3.55;100.00;96972.00;10451452;28;20223;-75
2022/10/09 23:54:56;;;;;;;11.67;3.87;;;;;;;3.50;100.00;96968.09;10451165;28;20688;-75